sensor_id;sensor_type;location;lat;lon;timestamp;temperature;humidity
20732;DHT22;10527;52.124;5.196;2023-04-03T00:01:19;6.20;99.90
20732;DHT22;10527;52.124;5.196;2023-04-03T00:03:46;6.30;99.90
20732;DHT22;10527;52.124;5.196;2023-04-03T00:06:14;6.30;99.90
20732;DHT22;10527;52.124;5.196;2023-04-03T00:08:41;6.10;99.90
20732;DHT22;10527;52.124;5.196;2023-04-03T00:11:10;6.20;99.90
20732;DHT22;10527;52.124;5.196;2023-04-03T00:13:38;6.20;99.90
20732;DHT22;10527;52.124;5.196;2023-04-03T00:16:08;6.10;99.90
20732;DHT22;10527;52.124;5.196;2023-04-03T00:18:39;6.10;99.90
20732;DHT22;10527;52.124;5.196;2023-04-03T00:21:07;6.00;99.90
20732;DHT22;10527;52.124;5.196;2023-04-03T00:23:36;6.00;99.90
20732;DHT22;10527;52.124;5.196;2023-04-03T00:26:02;5.90;99.90
20732;DHT22;10527;52.124;5.196;2023-04-03T00:28:29;6.00;99.90
20732;DHT22;10527;52.124;5.196;2023-04-03T00:30:57;5.90;99.90
20732;DHT22;10527;52.124;5.196;2023-04-03T00:33:24;6.00;99.90
20732;DHT22;10527;52.124;5.196;2023-04-03T00:35:51;6.00;99.90
20732;DHT22;10527;52.124;5.196;2023-04-03T00:38:18;5.90;99.90
20732;DHT22;10527;52.124;5.196;2023-04-03T00:40:47;6.00;99.90
20732;DHT22;10527;52.124;5.196;2023-04-03T00:43:19;6.00;99.90
20732;DHT22;10527;52.124;5.196;2023-04-03T00:45:55;5.90;99.90
20732;DHT22;10527;52.124;5.196;2023-04-03T00:48:34;5.90;99.90
20732;DHT22;10527;52.124;5.196;2023-04-03T00:51:08;5.90;99.90
20732;DHT22;10527;52.124;5.196;2023-04-03T00:54:14;5.80;99.90
20732;DHT22;10527;52.124;5.196;2023-04-03T00:56:36;5.80;99.90
20732;DHT22;10527;52.124;5.196;2023-04-03T00:59:08;5.80;99.90
20732;DHT22;10527;52.124;5.196;2023-04-03T01:01:43;5.70;99.90
20732;DHT22;10527;52.124;5.196;2023-04-03T01:04:32;5.70;99.90
20732;DHT22;10527;52.124;5.196;2023-04-03T01:07:15;5.70;99.90
20732;DHT22;10527;52.124;5.196;2023-04-03T01:09:46;5.80;99.90
20732;DHT22;10527;52.124;5.196;2023-04-03T01:12:26;5.70;99.90
20732;DHT22;10527;52.124;5.196;2023-04-03T01:15:02;5.70;99.90
20732;DHT22;10527;52.124;5.196;2023-04-03T01:25:33;5.70;99.90
20732;DHT22;10527;52.124;5.196;2023-04-03T01:28:00;5.60;99.90
20732;DHT22;10527;52.124;5.196;2023-04-03T01:30:38;5.60;99.90
20732;DHT22;10527;52.124;5.196;2023-04-03T01:33:26;5.60;99.90
20732;DHT22;10527;52.124;5.196;2023-04-03T01:35:53;5.60;99.90
20732;DHT22;10527;52.124;5.196;2023-04-03T01:38:22;5.60;99.90
20732;DHT22;10527;52.124;5.196;2023-04-03T01:40:49;5.60;99.90
20732;DHT22;10527;52.124;5.196;2023-04-03T01:43:16;5.50;99.90
20732;DHT22;10527;52.124;5.196;2023-04-03T01:45:43;5.40;99.90
20732;DHT22;10527;52.124;5.196;2023-04-03T01:48:10;5.40;99.90
20732;DHT22;10527;52.124;5.196;2023-04-03T01:50:37;5.40;99.90
20732;DHT22;10527;52.124;5.196;2023-04-03T01:53:04;5.40;99.90
20732;DHT22;10527;52.124;5.196;2023-04-03T01:55:31;5.50;99.90
20732;DHT22;10527;52.124;5.196;2023-04-03T01:57:58;5.40;99.90
20732;DHT22;10527;52.124;5.196;2023-04-03T02:00:25;5.40;99.90
20732;DHT22;10527;52.124;5.196;2023-04-03T02:02:53;5.30;99.90
20732;DHT22;10527;52.124;5.196;2023-04-03T02:05:21;5.30;99.90
20732;DHT22;10527;52.124;5.196;2023-04-03T02:07:48;5.30;99.90
20732;DHT22;10527;52.124;5.196;2023-04-03T02:10:15;5.30;99.90
20732;DHT22;10527;52.124;5.196;2023-04-03T02:12:42;5.20;99.90
20732;DHT22;10527;52.124;5.196;2023-04-03T02:15:09;5.20;99.90
20732;DHT22;10527;52.124;5.196;2023-04-03T02:17:36;5.10;99.90
20732;DHT22;10527;52.124;5.196;2023-04-03T02:20:04;5.20;99.90
20732;DHT22;10527;52.124;5.196;2023-04-03T02:22:31;5.10;99.90
20732;DHT22;10527;52.124;5.196;2023-04-03T02:24:58;5.00;99.90
20732;DHT22;10527;52.124;5.196;2023-04-03T02:27:25;5.00;99.90
20732;DHT22;10527;52.124;5.196;2023-04-03T02:29:52;5.00;99.90
20732;DHT22;10527;52.124;5.196;2023-04-03T02:32:18;4.90;99.90
20732;DHT22;10527;52.124;5.196;2023-04-03T02:34:45;5.00;99.90
20732;DHT22;10527;52.124;5.196;2023-04-03T02:37:12;4.90;99.90
20732;DHT22;10527;52.124;5.196;2023-04-03T02:39:39;4.90;99.90
20732;DHT22;10527;52.124;5.196;2023-04-03T02:42:06;4.90;99.90
20732;DHT22;10527;52.124;5.196;2023-04-03T02:44:34;4.90;99.90
20732;DHT22;10527;52.124;5.196;2023-04-03T02:47:01;4.80;99.90
20732;DHT22;10527;52.124;5.196;2023-04-03T02:49:29;4.90;99.90
20732;DHT22;10527;52.124;5.196;2023-04-03T02:51:56;4.80;99.90
20732;DHT22;10527;52.124;5.196;2023-04-03T02:54:23;4.80;99.90
20732;DHT22;10527;52.124;5.196;2023-04-03T02:56:54;4.80;99.90
20732;DHT22;10527;52.124;5.196;2023-04-03T02:59:21;4.70;99.90
20732;DHT22;10527;52.124;5.196;2023-04-03T03:01:47;4.70;99.90
20732;DHT22;10527;52.124;5.196;2023-04-03T03:04:14;4.80;99.90
20732;DHT22;10527;52.124;5.196;2023-04-03T03:06:41;4.70;99.90
20732;DHT22;10527;52.124;5.196;2023-04-03T03:09:10;4.70;99.90
20732;DHT22;10527;52.124;5.196;2023-04-03T03:11:38;4.60;99.90
20732;DHT22;10527;52.124;5.196;2023-04-03T03:14:05;4.60;99.90
20732;DHT22;10527;52.124;5.196;2023-04-03T03:16:32;4.60;99.90
20732;DHT22;10527;52.124;5.196;2023-04-03T03:19:01;4.60;99.90
20732;DHT22;10527;52.124;5.196;2023-04-03T03:21:28;4.60;99.90
20732;DHT22;10527;52.124;5.196;2023-04-03T03:23:55;4.60;99.90
20732;DHT22;10527;52.124;5.196;2023-04-03T03:26:21;4.60;99.90
20732;DHT22;10527;52.124;5.196;2023-04-03T03:28:48;4.60;99.90
20732;DHT22;10527;52.124;5.196;2023-04-03T03:31:15;4.50;99.90
20732;DHT22;10527;52.124;5.196;2023-04-03T03:33:42;4.50;99.90
20732;DHT22;10527;52.124;5.196;2023-04-03T03:36:08;4.50;99.90
20732;DHT22;10527;52.124;5.196;2023-04-03T03:38:36;4.40;99.90
20732;DHT22;10527;52.124;5.196;2023-04-03T03:41:03;4.40;99.90
20732;DHT22;10527;52.124;5.196;2023-04-03T03:43:30;4.40;99.90
20732;DHT22;10527;52.124;5.196;2023-04-03T03:45:57;4.40;99.90
20732;DHT22;10527;52.124;5.196;2023-04-03T03:48:23;4.30;99.90
20732;DHT22;10527;52.124;5.196;2023-04-03T03:50:52;4.40;99.90
20732;DHT22;10527;52.124;5.196;2023-04-03T03:53:19;4.30;99.90
20732;DHT22;10527;52.124;5.196;2023-04-03T03:55:46;4.30;99.90
20732;DHT22;10527;52.124;5.196;2023-04-03T03:58:13;4.30;99.90
20732;DHT22;10527;52.124;5.196;2023-04-03T04:00:39;4.30;99.90
20732;DHT22;10527;52.124;5.196;2023-04-03T04:03:06;4.30;99.90
20732;DHT22;10527;52.124;5.196;2023-04-03T04:05:33;4.30;99.90
20732;DHT22;10527;52.124;5.196;2023-04-03T04:08:01;4.20;99.90
20732;DHT22;10527;52.124;5.196;2023-04-03T04:10:28;4.20;99.90
20732;DHT22;10527;52.124;5.196;2023-04-03T04:12:55;4.20;99.90
20732;DHT22;10527;52.124;5.196;2023-04-03T04:15:24;4.10;99.90
20732;DHT22;10527;52.124;5.196;2023-04-03T04:17:52;4.10;99.90
20732;DHT22;10527;52.124;5.196;2023-04-03T04:20:20;4.10;99.90
20732;DHT22;10527;52.124;5.196;2023-04-03T04:22:46;4.10;99.90
20732;DHT22;10527;52.124;5.196;2023-04-03T04:25:13;4.10;99.90
20732;DHT22;10527;52.124;5.196;2023-04-03T04:27:40;4.10;99.90
20732;DHT22;10527;52.124;5.196;2023-04-03T04:30:08;4.10;99.90
20732;DHT22;10527;52.124;5.196;2023-04-03T04:32:36;4.10;99.90
20732;DHT22;10527;52.124;5.196;2023-04-03T04:35:04;4.00;99.90
20732;DHT22;10527;52.124;5.196;2023-04-03T04:37:32;4.00;99.90
20732;DHT22;10527;52.124;5.196;2023-04-03T04:39:59;4.00;99.90
20732;DHT22;10527;52.124;5.196;2023-04-03T04:42:26;3.90;99.90
20732;DHT22;10527;52.124;5.196;2023-04-03T04:44:53;3.90;99.90
20732;DHT22;10527;52.124;5.196;2023-04-03T04:47:20;3.90;99.90
20732;DHT22;10527;52.124;5.196;2023-04-03T04:49:47;3.90;99.90
20732;DHT22;10527;52.124;5.196;2023-04-03T04:52:14;3.90;99.90
20732;DHT22;10527;52.124;5.196;2023-04-03T04:54:41;4.00;99.90
20732;DHT22;10527;52.124;5.196;2023-04-03T04:57:08;3.90;99.90
20732;DHT22;10527;52.124;5.196;2023-04-03T04:59:36;3.90;99.90
20732;DHT22;10527;52.124;5.196;2023-04-03T05:02:03;3.90;99.90
20732;DHT22;10527;52.124;5.196;2023-04-03T05:04:30;3.90;99.90
20732;DHT22;10527;52.124;5.196;2023-04-03T05:06:57;4.00;99.90
20732;DHT22;10527;52.124;5.196;2023-04-03T05:09:25;4.00;99.90
20732;DHT22;10527;52.124;5.196;2023-04-03T05:11:52;3.90;99.90
20732;DHT22;10527;52.124;5.196;2023-04-03T05:14:19;3.90;99.90
20732;DHT22;10527;52.124;5.196;2023-04-03T05:16:46;3.80;99.90
20732;DHT22;10527;52.124;5.196;2023-04-03T05:19:17;3.80;99.90
20732;DHT22;10527;52.124;5.196;2023-04-03T05:21:45;3.80;99.90
20732;DHT22;10527;52.124;5.196;2023-04-03T05:24:13;3.80;99.90
20732;DHT22;10527;52.124;5.196;2023-04-03T05:26:43;3.80;99.90
20732;DHT22;10527;52.124;5.196;2023-04-03T05:29:10;3.70;99.90
20732;DHT22;10527;52.124;5.196;2023-04-03T05:31:37;3.70;99.90
20732;DHT22;10527;52.124;5.196;2023-04-03T05:34:04;3.80;99.90
20732;DHT22;10527;52.124;5.196;2023-04-03T05:36:32;3.70;99.90
20732;DHT22;10527;52.124;5.196;2023-04-03T05:38:59;3.70;99.90
20732;DHT22;10527;52.124;5.196;2023-04-03T05:41:27;3.70;99.90
20732;DHT22;10527;52.124;5.196;2023-04-03T05:43:53;3.70;99.90
20732;DHT22;10527;52.124;5.196;2023-04-03T05:46:20;3.70;99.90
20732;DHT22;10527;52.124;5.196;2023-04-03T05:48:49;3.70;99.90
20732;DHT22;10527;52.124;5.196;2023-04-03T05:51:29;3.70;99.90
20732;DHT22;10527;52.124;5.196;2023-04-03T05:54:23;3.70;99.90
20732;DHT22;10527;52.124;5.196;2023-04-03T05:56:55;3.70;99.90
20732;DHT22;10527;52.124;5.196;2023-04-03T05:59:22;3.70;99.90
20732;DHT22;10527;52.124;5.196;2023-04-03T06:01:49;3.70;99.90
20732;DHT22;10527;52.124;5.196;2023-04-03T06:04:15;3.70;99.90
20732;DHT22;10527;52.124;5.196;2023-04-03T06:06:53;3.60;99.90
20732;DHT22;10527;52.124;5.196;2023-04-03T06:09:24;3.60;99.90
20732;DHT22;10527;52.124;5.196;2023-04-03T06:11:53;3.70;99.90
20732;DHT22;10527;52.124;5.196;2023-04-03T06:14:20;3.70;99.90
20732;DHT22;10527;52.124;5.196;2023-04-03T06:16:47;3.60;99.90
20732;DHT22;10527;52.124;5.196;2023-04-03T06:19:14;3.70;99.90
20732;DHT22;10527;52.124;5.196;2023-04-03T06:21:42;3.80;99.90
20732;DHT22;10527;52.124;5.196;2023-04-03T06:24:11;3.80;99.90
20732;DHT22;10527;52.124;5.196;2023-04-03T06:26:41;3.70;99.90
20732;DHT22;10527;52.124;5.196;2023-04-03T06:29:09;3.80;99.90
20732;DHT22;10527;52.124;5.196;2023-04-03T06:31:36;3.80;99.90
20732;DHT22;10527;52.124;5.196;2023-04-03T06:34:04;3.80;99.90
20732;DHT22;10527;52.124;5.196;2023-04-03T06:36:35;3.70;99.90
20732;DHT22;10527;52.124;5.196;2023-04-03T06:39:02;3.80;99.90
20732;DHT22;10527;52.124;5.196;2023-04-03T06:41:29;3.90;99.90
20732;DHT22;10527;52.124;5.196;2023-04-03T06:43:57;3.90;99.90
20732;DHT22;10527;52.124;5.196;2023-04-03T06:46:26;3.90;99.90
20732;DHT22;10527;52.124;5.196;2023-04-03T06:48:56;3.90;99.90
20732;DHT22;10527;52.124;5.196;2023-04-03T06:51:24;3.90;99.90
20732;DHT22;10527;52.124;5.196;2023-04-03T06:53:57;3.90;99.90
20732;DHT22;10527;52.124;5.196;2023-04-03T06:56:27;4.00;99.90
20732;DHT22;10527;52.124;5.196;2023-04-03T06:58:56;4.10;99.90
20732;DHT22;10527;52.124;5.196;2023-04-03T07:01:26;4.10;99.90
20732;DHT22;10527;52.124;5.196;2023-04-03T07:03:54;4.10;99.90
20732;DHT22;10527;52.124;5.196;2023-04-03T07:06:22;4.10;99.90
20732;DHT22;10527;52.124;5.196;2023-04-03T07:08:52;4.10;99.90
20732;DHT22;10527;52.124;5.196;2023-04-03T07:11:23;4.10;99.90
20732;DHT22;10527;52.124;5.196;2023-04-03T07:13:53;4.10;99.90
20732;DHT22;10527;52.124;5.196;2023-04-03T07:16:20;4.20;99.90
20732;DHT22;10527;52.124;5.196;2023-04-03T07:18:47;4.20;99.90
20732;DHT22;10527;52.124;5.196;2023-04-03T07:21:16;4.30;99.90
20732;DHT22;10527;52.124;5.196;2023-04-03T07:23:43;4.30;99.90
20732;DHT22;10527;52.124;5.196;2023-04-03T07:26:09;4.30;99.90
20732;DHT22;10527;52.124;5.196;2023-04-03T07:28:36;4.30;99.90
20732;DHT22;10527;52.124;5.196;2023-04-03T07:31:07;4.30;99.90
20732;DHT22;10527;52.124;5.196;2023-04-03T07:33:38;4.30;99.90
20732;DHT22;10527;52.124;5.196;2023-04-03T07:36:07;4.40;99.90
20732;DHT22;10527;52.124;5.196;2023-04-03T07:38:35;4.40;99.90
20732;DHT22;10527;52.124;5.196;2023-04-03T07:41:03;4.40;99.90
20732;DHT22;10527;52.124;5.196;2023-04-03T07:43:31;4.50;99.90
20732;DHT22;10527;52.124;5.196;2023-04-03T07:45:58;4.50;99.90
20732;DHT22;10527;52.124;5.196;2023-04-03T07:48:26;4.60;99.90
20732;DHT22;10527;52.124;5.196;2023-04-03T07:50:53;4.60;99.90
20732;DHT22;10527;52.124;5.196;2023-04-03T07:53:20;4.60;99.90
20732;DHT22;10527;52.124;5.196;2023-04-03T07:55:49;4.60;99.90
20732;DHT22;10527;52.124;5.196;2023-04-03T07:58:18;4.70;99.90
20732;DHT22;10527;52.124;5.196;2023-04-03T08:00:46;4.70;99.90
20732;DHT22;10527;52.124;5.196;2023-04-03T08:03:14;4.70;99.90
20732;DHT22;10527;52.124;5.196;2023-04-03T08:05:45;4.80;99.90
20732;DHT22;10527;52.124;5.196;2023-04-03T08:08:16;4.80;99.90
20732;DHT22;10527;52.124;5.196;2023-04-03T08:10:51;4.90;99.90
20732;DHT22;10527;52.124;5.196;2023-04-03T08:13:21;4.90;99.90
20732;DHT22;10527;52.124;5.196;2023-04-03T08:15:51;5.00;99.90
20732;DHT22;10527;52.124;5.196;2023-04-03T08:18:18;5.40;99.90
20732;DHT22;10527;52.124;5.196;2023-04-03T08:20:48;5.80;99.90
20732;DHT22;10527;52.124;5.196;2023-04-03T08:23:14;6.20;99.90
20732;DHT22;10527;52.124;5.196;2023-04-03T08:25:45;6.70;99.90
20732;DHT22;10527;52.124;5.196;2023-04-03T08:28:12;7.10;99.90
20732;DHT22;10527;52.124;5.196;2023-04-03T08:30:40;7.40;99.90
20732;DHT22;10527;52.124;5.196;2023-04-03T08:33:09;7.60;99.90
20732;DHT22;10527;52.124;5.196;2023-04-03T08:35:40;7.90;99.90
20732;DHT22;10527;52.124;5.196;2023-04-03T08:38:11;8.20;99.90
20732;DHT22;10527;52.124;5.196;2023-04-03T08:40:39;8.40;99.90
20732;DHT22;10527;52.124;5.196;2023-04-03T08:51:55;9.20;99.90
20732;DHT22;10527;52.124;5.196;2023-04-03T08:54:29;9.30;99.90
20732;DHT22;10527;52.124;5.196;2023-04-03T08:57:03;9.40;99.90
20732;DHT22;10527;52.124;5.196;2023-04-03T08:59:35;9.50;99.90
20732;DHT22;10527;52.124;5.196;2023-04-03T09:02:42;9.50;99.90
20732;DHT22;10527;52.124;5.196;2023-04-03T09:05:17;9.50;99.90
20732;DHT22;10527;52.124;5.196;2023-04-03T09:08:33;9.50;99.90
20732;DHT22;10527;52.124;5.196;2023-04-03T09:22:54;10.00;99.90
20732;DHT22;10527;52.124;5.196;2023-04-03T09:25:23;10.00;99.90
20732;DHT22;10527;52.124;5.196;2023-04-03T09:28:00;10.00;99.90
20732;DHT22;10527;52.124;5.196;2023-04-03T09:30:28;10.10;99.90
20732;DHT22;10527;52.124;5.196;2023-04-03T09:32:57;10.10;99.90
20732;DHT22;10527;52.124;5.196;2023-04-03T09:41:05;10.10;99.90
20732;DHT22;10527;52.124;5.196;2023-04-03T09:43:35;10.10;99.90
20732;DHT22;10527;52.124;5.196;2023-04-03T09:46:25;10.10;99.90
20732;DHT22;10527;52.124;5.196;2023-04-03T09:48:59;10.20;99.90
20732;DHT22;10527;52.124;5.196;2023-04-03T09:51:37;10.10;99.90
20732;DHT22;10527;52.124;5.196;2023-04-03T09:57:14;9.90;99.90
20732;DHT22;10527;52.124;5.196;2023-04-03T10:00:04;9.90;99.90
20732;DHT22;10527;52.124;5.196;2023-04-03T10:02:38;9.80;99.90
20732;DHT22;10527;52.124;5.196;2023-04-03T10:05:36;10.10;99.90
20732;DHT22;10527;52.124;5.196;2023-04-03T10:10:46;10.30;99.90
20732;DHT22;10527;52.124;5.196;2023-04-03T10:13:19;10.30;99.90
20732;DHT22;10527;52.124;5.196;2023-04-03T10:16:07;10.40;99.90
20732;DHT22;10527;52.124;5.196;2023-04-03T10:18:56;10.60;99.90
20732;DHT22;10527;52.124;5.196;2023-04-03T10:21:51;10.40;99.90
20732;DHT22;10527;52.124;5.196;2023-04-03T10:24:31;10.70;99.90
20732;DHT22;10527;52.124;5.196;2023-04-03T10:27:11;10.70;99.90
20732;DHT22;10527;52.124;5.196;2023-04-03T10:39:11;10.80;99.90
20732;DHT22;10527;52.124;5.196;2023-04-03T10:42:26;10.70;99.90
20732;DHT22;10527;52.124;5.196;2023-04-03T10:45:40;10.80;99.90
20732;DHT22;10527;52.124;5.196;2023-04-03T10:48:53;10.90;99.90
20732;DHT22;10527;52.124;5.196;2023-04-03T10:54:11;10.90;99.90
20732;DHT22;10527;52.124;5.196;2023-04-03T10:57:00;11.00;99.90
20732;DHT22;10527;52.124;5.196;2023-04-03T11:00:07;11.10;99.90
20732;DHT22;10527;52.124;5.196;2023-04-03T11:02:55;11.10;99.90
20732;DHT22;10527;52.124;5.196;2023-04-03T11:05:31;11.20;99.90
20732;DHT22;10527;52.124;5.196;2023-04-03T11:08:21;11.50;99.90
20732;DHT22;10527;52.124;5.196;2023-04-03T11:11:08;11.20;99.90
20732;DHT22;10527;52.124;5.196;2023-04-03T11:13:59;11.30;99.90
20732;DHT22;10527;52.124;5.196;2023-04-03T11:16:34;11.20;99.90
20732;DHT22;10527;52.124;5.196;2023-04-03T11:24:50;11.20;99.90
20732;DHT22;10527;52.124;5.196;2023-04-03T11:27:23;11.50;99.90
20732;DHT22;10527;52.124;5.196;2023-04-03T11:29:53;11.50;99.90
20732;DHT22;10527;52.124;5.196;2023-04-03T11:32:46;11.30;99.90
20732;DHT22;10527;52.124;5.196;2023-04-03T11:35:37;11.40;99.90
20732;DHT22;10527;52.124;5.196;2023-04-03T11:38:19;11.60;99.90
20732;DHT22;10527;52.124;5.196;2023-04-03T11:40:51;11.50;99.90
20732;DHT22;10527;52.124;5.196;2023-04-03T11:43:30;11.70;99.90
20732;DHT22;10527;52.124;5.196;2023-04-03T11:46:03;11.60;99.90
20732;DHT22;10527;52.124;5.196;2023-04-03T11:48:52;11.60;99.90
20732;DHT22;10527;52.124;5.196;2023-04-03T11:53:54;11.90;99.90
20732;DHT22;10527;52.124;5.196;2023-04-03T12:08:47;12.00;99.90
20732;DHT22;10527;52.124;5.196;2023-04-03T12:11:30;12.00;99.90
20732;DHT22;10527;52.124;5.196;2023-04-03T12:16:33;12.10;99.90
20732;DHT22;10527;52.124;5.196;2023-04-03T12:22:10;12.00;99.90
20732;DHT22;10527;52.124;5.196;2023-04-03T12:24:45;12.10;99.90
20732;DHT22;10527;52.124;5.196;2023-04-03T12:27:34;12.30;99.90
20732;DHT22;10527;52.124;5.196;2023-04-03T12:30:26;12.30;99.90
20732;DHT22;10527;52.124;5.196;2023-04-03T12:33:32;12.40;99.90
20732;DHT22;10527;52.124;5.196;2023-04-03T12:36:26;12.50;99.90
20732;DHT22;10527;52.124;5.196;2023-04-03T12:39:05;12.50;99.90
20732;DHT22;10527;52.124;5.196;2023-04-03T12:41:56;12.30;99.90
20732;DHT22;10527;52.124;5.196;2023-04-03T12:45:10;12.30;99.90
20732;DHT22;10527;52.124;5.196;2023-04-03T12:47:42;12.60;99.90
20732;DHT22;10527;52.124;5.196;2023-04-03T12:50:19;12.50;99.90
20732;DHT22;10527;52.124;5.196;2023-04-03T12:53:04;12.50;99.90
20732;DHT22;10527;52.124;5.196;2023-04-03T12:55:33;12.50;99.90
20732;DHT22;10527;52.124;5.196;2023-04-03T12:58:23;12.30;99.90
20732;DHT22;10527;52.124;5.196;2023-04-03T13:01:01;12.50;99.90
20732;DHT22;10527;52.124;5.196;2023-04-03T13:03:43;12.50;99.90
20732;DHT22;10527;52.124;5.196;2023-04-03T13:06:18;12.30;99.90
20732;DHT22;10527;52.124;5.196;2023-04-03T13:08:58;12.50;99.90
20732;DHT22;10527;52.124;5.196;2023-04-03T13:11:34;12.40;99.90
20732;DHT22;10527;52.124;5.196;2023-04-03T13:14:15;12.70;99.90
20732;DHT22;10527;52.124;5.196;2023-04-03T13:17:06;12.70;99.90
20732;DHT22;10527;52.124;5.196;2023-04-03T13:19:39;12.80;99.90
20732;DHT22;10527;52.124;5.196;2023-04-03T13:22:21;12.80;99.90
20732;DHT22;10527;52.124;5.196;2023-04-03T13:24:54;12.90;99.90
20732;DHT22;10527;52.124;5.196;2023-04-03T13:27:25;12.90;99.90
20732;DHT22;10527;52.124;5.196;2023-04-03T13:29:54;12.90;99.90
20732;DHT22;10527;52.124;5.196;2023-04-03T13:32:26;12.90;99.90
20732;DHT22;10527;52.124;5.196;2023-04-03T13:34:55;13.00;99.90
20732;DHT22;10527;52.124;5.196;2023-04-03T13:37:33;13.10;99.90
20732;DHT22;10527;52.124;5.196;2023-04-03T13:42:35;13.10;99.90
20732;DHT22;10527;52.124;5.196;2023-04-03T13:45:17;13.10;99.90
20732;DHT22;10527;52.124;5.196;2023-04-03T13:47:47;13.20;99.90
20732;DHT22;10527;52.124;5.196;2023-04-03T13:50:21;13.10;99.90
20732;DHT22;10527;52.124;5.196;2023-04-03T13:53:03;13.10;99.90
20732;DHT22;10527;52.124;5.196;2023-04-03T13:55:57;13.10;99.90
20732;DHT22;10527;52.124;5.196;2023-04-03T13:58:32;13.30;99.90
20732;DHT22;10527;52.124;5.196;2023-04-03T14:01:21;13.30;99.90
20732;DHT22;10527;52.124;5.196;2023-04-03T14:06:22;13.30;99.90
20732;DHT22;10527;52.124;5.196;2023-04-03T14:08:53;13.40;99.90
20732;DHT22;10527;52.124;5.196;2023-04-03T14:11:26;13.30;99.90
20732;DHT22;10527;52.124;5.196;2023-04-03T14:13:59;13.20;99.90
20732;DHT22;10527;52.124;5.196;2023-04-03T14:16:31;13.20;99.90
20732;DHT22;10527;52.124;5.196;2023-04-03T14:19:03;13.20;99.90
20732;DHT22;10527;52.124;5.196;2023-04-03T14:21:30;13.20;99.90
20732;DHT22;10527;52.124;5.196;2023-04-03T14:23:57;13.20;99.90
20732;DHT22;10527;52.124;5.196;2023-04-03T14:26:24;13.30;99.90
20732;DHT22;10527;52.124;5.196;2023-04-03T14:28:54;13.40;99.90
20732;DHT22;10527;52.124;5.196;2023-04-03T14:31:22;13.30;99.90
20732;DHT22;10527;52.124;5.196;2023-04-03T14:33:49;13.20;99.90
20732;DHT22;10527;52.124;5.196;2023-04-03T14:36:23;13.30;99.90
20732;DHT22;10527;52.124;5.196;2023-04-03T14:38:53;13.40;99.90
20732;DHT22;10527;52.124;5.196;2023-04-03T14:41:23;13.50;99.90
20732;DHT22;10527;52.124;5.196;2023-04-03T14:43:52;13.50;99.90
20732;DHT22;10527;52.124;5.196;2023-04-03T14:46:24;13.50;99.90
20732;DHT22;10527;52.124;5.196;2023-04-03T14:49:19;13.70;99.90
20732;DHT22;10527;52.124;5.196;2023-04-03T14:51:57;13.80;99.90
20732;DHT22;10527;52.124;5.196;2023-04-03T14:54:25;13.70;99.90
20732;DHT22;10527;52.124;5.196;2023-04-03T14:56:56;13.60;99.90
20732;DHT22;10527;52.124;5.196;2023-04-03T14:59:26;13.50;99.90
20732;DHT22;10527;52.124;5.196;2023-04-03T15:01:54;13.50;99.90
20732;DHT22;10527;52.124;5.196;2023-04-03T15:04:21;13.50;99.90
20732;DHT22;10527;52.124;5.196;2023-04-03T15:06:48;13.50;99.90
20732;DHT22;10527;52.124;5.196;2023-04-03T15:11:48;13.50;99.90
20732;DHT22;10527;52.124;5.196;2023-04-03T15:14:17;13.50;99.90
20732;DHT22;10527;52.124;5.196;2023-04-03T15:17:04;13.60;99.90
20732;DHT22;10527;52.124;5.196;2023-04-03T15:19:38;13.70;99.90
20732;DHT22;10527;52.124;5.196;2023-04-03T15:22:06;13.60;99.90
20732;DHT22;10527;52.124;5.196;2023-04-03T15:24:33;13.60;99.90
20732;DHT22;10527;52.124;5.196;2023-04-03T15:27:00;13.40;99.90
20732;DHT22;10527;52.124;5.196;2023-04-03T15:29:27;13.40;99.90
20732;DHT22;10527;52.124;5.196;2023-04-03T15:31:54;13.30;99.90
20732;DHT22;10527;52.124;5.196;2023-04-03T15:34:22;13.50;99.90
20732;DHT22;10527;52.124;5.196;2023-04-03T15:36:50;13.90;99.90
20732;DHT22;10527;52.124;5.196;2023-04-03T15:39:19;13.80;99.90
20732;DHT22;10527;52.124;5.196;2023-04-03T15:41:47;13.70;99.90
20732;DHT22;10527;52.124;5.196;2023-04-03T15:44:14;13.70;99.90
20732;DHT22;10527;52.124;5.196;2023-04-03T15:46:47;13.70;99.90
20732;DHT22;10527;52.124;5.196;2023-04-03T15:49:19;13.70;99.90
20732;DHT22;10527;52.124;5.196;2023-04-03T15:51:50;13.70;99.90
20732;DHT22;10527;52.124;5.196;2023-04-03T15:54:17;13.70;99.90
20732;DHT22;10527;52.124;5.196;2023-04-03T15:56:44;13.80;99.90
20732;DHT22;10527;52.124;5.196;2023-04-03T15:59:11;13.80;99.90
20732;DHT22;10527;52.124;5.196;2023-04-03T16:01:38;13.70;99.90
20732;DHT22;10527;52.124;5.196;2023-04-03T16:04:08;13.60;99.90
20732;DHT22;10527;52.124;5.196;2023-04-03T16:06:37;13.60;99.90
20732;DHT22;10527;52.124;5.196;2023-04-03T16:09:04;13.50;99.90
20732;DHT22;10527;52.124;5.196;2023-04-03T16:11:32;13.30;99.90
20732;DHT22;10527;52.124;5.196;2023-04-03T16:14:01;13.40;99.90
20732;DHT22;10527;52.124;5.196;2023-04-03T16:16:28;13.40;99.90
20732;DHT22;10527;52.124;5.196;2023-04-03T16:18:56;13.30;99.90
20732;DHT22;10527;52.124;5.196;2023-04-03T16:21:23;13.40;99.90
20732;DHT22;10527;52.124;5.196;2023-04-03T16:23:51;13.40;99.90
20732;DHT22;10527;52.124;5.196;2023-04-03T16:26:18;13.30;99.90
20732;DHT22;10527;52.124;5.196;2023-04-03T16:28:45;13.40;99.90
20732;DHT22;10527;52.124;5.196;2023-04-03T16:31:12;13.40;99.90
20732;DHT22;10527;52.124;5.196;2023-04-03T16:33:39;13.40;99.90
20732;DHT22;10527;52.124;5.196;2023-04-03T16:36:06;13.30;99.90
20732;DHT22;10527;52.124;5.196;2023-04-03T16:38:33;13.10;99.90
20732;DHT22;10527;52.124;5.196;2023-04-03T16:41:00;13.00;99.90
20732;DHT22;10527;52.124;5.196;2023-04-03T16:43:31;13.00;99.90
20732;DHT22;10527;52.124;5.196;2023-04-03T16:45:59;13.00;99.90
20732;DHT22;10527;52.124;5.196;2023-04-03T16:48:29;13.00;99.90
20732;DHT22;10527;52.124;5.196;2023-04-03T16:50:56;12.80;99.90
20732;DHT22;10527;52.124;5.196;2023-04-03T16:53:24;12.80;99.90
20732;DHT22;10527;52.124;5.196;2023-04-03T16:55:52;12.70;99.90
20732;DHT22;10527;52.124;5.196;2023-04-03T16:58:20;12.70;99.90
20732;DHT22;10527;52.124;5.196;2023-04-03T17:00:49;12.50;99.90
20732;DHT22;10527;52.124;5.196;2023-04-03T17:03:16;12.40;99.90
20732;DHT22;10527;52.124;5.196;2023-04-03T17:05:47;12.40;99.90
20732;DHT22;10527;52.124;5.196;2023-04-03T17:08:15;12.20;99.90
20732;DHT22;10527;52.124;5.196;2023-04-03T17:10:43;12.10;99.90
20732;DHT22;10527;52.124;5.196;2023-04-03T17:13:10;12.00;99.90
20732;DHT22;10527;52.124;5.196;2023-04-03T17:15:37;11.90;99.90
20732;DHT22;10527;52.124;5.196;2023-04-03T17:18:07;11.70;99.90
20732;DHT22;10527;52.124;5.196;2023-04-03T17:20:34;11.60;99.90
20732;DHT22;10527;52.124;5.196;2023-04-03T17:23:03;11.60;99.90
20732;DHT22;10527;52.124;5.196;2023-04-03T17:25:31;11.50;99.90
20732;DHT22;10527;52.124;5.196;2023-04-03T17:27:57;11.40;99.90
20732;DHT22;10527;52.124;5.196;2023-04-03T17:30:24;11.40;99.90
20732;DHT22;10527;52.124;5.196;2023-04-03T17:32:54;11.40;99.90
20732;DHT22;10527;52.124;5.196;2023-04-03T17:35:21;11.20;99.90